South Fork, Colorado
Current Conditions -  °F | °C
As of 7:50 PM on Sunday 23 Nov 2014 (Local Time) from KRCV Reporting Station
Clear Clear  
Wind Chill: 11°   Ceiling: Unl
Heat Index: 21°   Visibility: 10mi
Dew Point:   Wind: 8mph
Humidity: 44%   Direction: 260°W
Pressure: 29.98"   Gusts: NA
Location:  37.67°N, 106.64°W
Report Text: KRCV 240250Z AUTO 26007KT 10SM CLR M06/M17 A2998 RMK AO2 T10611167
Loading
Personal Weather Stations






























Interactive Weather Map New forecast layout! Learn more

10-Day Weather Forecast

Advertisements
Track Severe Weather on mobile